Time;durP1;ratioP1;P1;durP2;ratioP2;P2;SDS_P1;SDS_P2;PMS_P1;PMS_P2;Temp;Humidity;BMP_temperature;BMP_pressure;BME280_temperature;BME280_humidity;BME280_pressure;Samples;Min_cycle;Max_cycle;Signal;HPM_P1;HPM_P2
2023/03/25 00:00:12;;;;;;;4.05;1.10;;;8.90;99.90;;;;;;7406046;19;20715;-82
2023/03/25 00:02:41;;;;;;;8.77;1.35;;;9.00;99.90;;;;;;7405873;19;19918;-81
2023/03/25 00:05:13;;;;;;;4.18;1.08;;;9.00;99.90;;;;;;7407793;19;19940;-77
2023/03/25 00:07:42;;;;;;;;;;;8.90;99.90;;;;;;7409022;19;19929;-83
2023/03/25 00:10:13;;;;;;;3.45;1.10;;;8.90;99.90;;;;;;7405934;19;19922;-81
2023/03/25 00:12:42;;;;;;;6.85;1.38;;;9.10;99.90;;;;;;7407302;19;19914;-85
2023/03/25 00:15:15;;;;;;;5.63;1.00;;;8.80;99.90;;;;;;7404084;19;19925;-82
2023/03/25 00:17:44;;;;;;;5.18;1.10;;;9.00;99.90;;;;;;7398851;19;20374;-84
2023/03/25 00:20:14;;;;;;;6.13;1.50;;;9.00;99.90;;;;;;7407475;19;19926;-83
2023/03/25 00:22:43;;;;;;;4.03;1.17;;;9.00;99.90;;;;;;7405915;19;19922;-82
2023/03/25 00:25:16;;;;;;;5.15;1.15;;;9.00;99.90;;;;;;7405412;19;20344;-83
2023/03/25 00:27:46;;;;;;;4.80;1.00;;;9.10;99.90;;;;;;7404674;19;20233;-83
2023/03/25 00:30:20;;;;;;;6.95;1.30;;;9.20;99.90;;;;;;7410115;19;19929;-83
2023/03/25 00:32:51;;;;;;;3.25;0.95;;;9.20;99.90;;;;;;7406635;19;19936;-83
2023/03/25 00:35:20;;;;;;;7.60;2.08;;;9.00;99.90;;;;;;7407299;19;19963;-83
2023/03/25 00:37:56;;;;;;;6.32;1.15;;;9.00;99.90;;;;;;7408398;19;19921;-83
2023/03/25 00:40:25;;;;;;;4.68;1.00;;;9.10;99.90;;;;;;7403500;19;19915;-83
2023/03/25 00:42:53;;;;;;;5.38;1.08;;;9.10;99.90;;;;;;7404620;19;19919;-83
2023/03/25 00:45:25;;;;;;;7.25;1.33;;;9.00;99.90;;;;;;7404481;19;20338;-83
2023/03/25 00:47:55;;;;;;;5.45;1.40;;;9.00;99.90;;;;;;7406903;19;19914;-83
2023/03/25 00:50:25;;;;;;;6.93;2.55;;;9.00;99.90;;;;;;7406005;19;20356;-81
2023/03/25 00:52:58;;;;;;;9.23;1.33;;;9.00;99.90;;;;;;7407769;19;19915;-82
2023/03/25 00:55:27;;;;;;;5.63;1.15;;;9.00;99.90;;;;;;7406525;19;19946;-84
2023/03/25 00:57:56;;;;;;;4.50;1.20;;;8.90;99.90;;;;;;7407108;19;19922;-83
2023/03/25 01:00:28;;;;;;;9.63;1.50;;;9.10;99.90;;;;;;7403338;19;20333;-83
2023/03/25 01:03:02;;;;;;;5.57;1.48;;;9.00;99.90;;;;;;7404169;19;20392;-83
2023/03/25 01:05:32;;;;;;;9.35;1.40;;;9.00;99.90;;;;;;7406579;19;19930;-82
2023/03/25 01:08:01;;;;;;;7.78;1.10;;;9.00;99.90;;;;;;7408550;19;19932;-82
2023/03/25 01:10:30;;;;;;;8.82;1.38;;;9.10;99.90;;;;;;7406393;19;20513;-82
2023/03/25 01:12:59;;;;;;;11.00;2.38;;;9.00;99.90;;;;;;7405915;19;20277;-82
2023/03/25 01:15:31;;;;;;;8.75;1.85;;;9.10;99.90;;;;;;7407347;19;20323;-83
2023/03/25 01:18:00;;;;;;;7.57;1.10;;;9.00;99.90;;;;;;7405855;19;20347;-84
2023/03/25 01:20:29;;;;;;;6.78;1.42;;;9.10;99.90;;;;;;7402626;19;19911;-83
2023/03/25 01:22:58;;;;;;;8.30;1.30;;;8.90;99.90;;;;;;7407029;19;19921;-84
2023/03/25 01:25:29;;;;;;;3.20;0.88;;;8.90;99.90;;;;;;7405994;19;19918;-83
2023/03/25 01:27:58;;;;;;;5.00;0.90;;;8.80;99.90;;;;;;7407054;19;19922;-84
2023/03/25 01:30:27;;;;;;;7.72;1.33;;;8.80;99.90;;;;;;7405734;19;19966;-84
2023/03/25 01:32:58;;;;;;;5.30;0.90;;;8.50;99.90;;;;;;7407235;19;20478;-85
2023/03/25 01:35:27;;;;;;;5.50;1.00;;;8.50;99.90;;;;;;7405373;19;19930;-84
2023/03/25 01:37:56;;;;;;;4.80;1.30;;;8.40;99.90;;;;;;7404532;19;20348;-84
2023/03/25 01:40:26;;;;;;;5.93;1.20;;;8.40;99.90;;;;;;7406486;19;20340;-84
2023/03/25 01:42:55;;;;;;;9.38;2.03;;;8.30;99.90;;;;;;7406077;19;19918;-84
2023/03/25 01:45:27;;;;;;;5.07;1.08;;;8.20;99.90;;;;;;7404446;19;19926;-82
2023/03/25 01:48:10;;;;;;;5.18;1.17;;;8.20;99.90;;;;;;7405758;19;19922;-84
2023/03/25 01:50:41;;;;;;;10.60;1.50;;;8.10;99.90;;;;;;7404005;19;19978;-84
2023/03/25 01:53:11;;;;;;;8.43;1.48;;;8.20;99.90;;;;;;7404698;19;19971;-83
2023/03/25 01:55:42;;;;;;;2.53;1.10;;;7.90;99.90;;;;;;7402774;19;20257;-83
2023/03/25 01:58:14;;;;;;;8.77;1.20;;;8.10;99.90;;;;;;7403469;19;19919;-83
2023/03/25 02:00:46;;;;;;;4.03;1.05;;;7.90;99.90;;;;;;7401685;19;19911;-84
2023/03/25 02:03:19;;;;;;;;;;;7.90;99.90;;;;;;7407075;19;20291;-83
2023/03/25 02:06:02;;;;;;;5.90;1.35;;;7.90;99.90;;;;;;7403499;19;19921;-84
2023/03/25 02:08:36;;;;;;;6.38;1.00;;;7.90;99.90;;;;;;7405361;19;19921;-84
2023/03/25 02:11:06;;;;;;;5.53;1.00;;;8.10;99.90;;;;;;7403228;19;20312;-85
2023/03/25 02:13:38;;;;;;;6.30;1.00;;;8.00;99.90;;;;;;7406970;19;19922;-85
2023/03/25 02:16:24;;;;;;;4.43;1.27;;;8.40;99.90;;;;;;7404411;19;19919;-85
2023/03/25 02:19:13;;;;;;;5.45;1.35;;;8.10;99.90;;;;;;7403268;19;19967;-85
2023/03/25 02:22:20;;;;;;;4.82;1.20;;;8.00;99.90;;;;;;7403811;19;19918;-85
2023/03/25 02:25:10;;;;;;;6.85;2.17;;;8.00;99.90;;;;;;7402063;19;19938;-86
2023/03/25 02:27:54;;;;;;;11.13;1.30;;;7.90;99.90;;;;;;7403957;19;19942;-85
2023/03/25 02:30:46;;;;;;;7.30;1.38;;;8.00;99.90;;;;;;7405678;19;19927;-85
2023/03/25 02:33:38;;;;;;;6.07;1.55;;;8.00;99.90;;;;;;7407817;19;19922;-85
2023/03/25 02:36:42;;;;;;;2.97;1.27;;;7.90;99.90;;;;;;7403195;19;19929;-85
2023/03/25 02:39:22;;;;;;;5.47;1.65;;;7.80;99.90;;;;;;7404316;19;19932;-85
2023/03/25 02:42:00;;;;;;;9.15;1.98;;;7.90;99.90;;;;;;7401384;19;19914;-86
2023/03/25 02:44:34;;;;;;;8.13;1.40;;;8.00;99.90;;;;;;7407951;19;19934;-86
2023/03/25 02:47:06;;;;;;;4.85;1.48;;;7.90;99.90;;;;;;7405051;19;19946;-85
2023/03/25 02:49:39;;;;;;;10.20;1.73;;;8.00;99.90;;;;;;7411439;19;19927;-86
2023/03/25 02:52:12;;;;;;;8.13;1.95;;;8.90;99.90;;;;;;7408039;19;19923;-86
2023/03/25 02:54:46;;;;;;;3.35;1.20;;;7.90;99.90;;;;;;7405290;19;19922;-86
2023/03/25 02:57:20;;;;;;;10.63;1.90;;;8.20;99.90;;;;;;7403434;19;19939;-86
2023/03/25 02:59:52;;;;;;;8.13;1.58;;;8.20;99.90;;;;;;7403573;19;19914;-87
2023/03/25 03:02:24;;;;;;;8.00;1.73;;;8.00;99.90;;;;;;7404360;19;19922;-87
2023/03/25 03:04:56;;;;;;;7.32;1.70;;;7.90;99.90;;;;;;7404924;19;19931;-87
2023/03/25 03:07:30;;;;;;;10.05;1.80;;;8.10;99.90;;;;;;7403470;19;20268;-86
2023/03/25 03:10:18;;;;;;;9.02;1.77;;;8.00;99.90;;;;;;7405631;19;19928;-86
2023/03/25 03:13:00;;;;;;;7.35;1.48;;;8.10;99.90;;;;;;7404397;19;19922;-86
2023/03/25 03:15:39;;;;;;;12.25;2.38;;;8.00;99.90;;;;;;7412029;19;19988;-86
2023/03/25 03:18:20;;;;;;;15.50;1.85;;;8.00;99.90;;;;;;7409020;19;19922;-86
2023/03/25 03:20:59;;;;;;;12.35;2.50;;;7.90;99.90;;;;;;7406869;19;19990;-86
2023/03/25 03:23:35;;;;;;;5.50;1.70;;;8.00;99.90;;;;;;7411206;19;19935;-88
2023/03/25 03:26:13;;;;;;;7.97;2.40;;;8.00;99.90;;;;;;7409166;19;19986;-86
2023/03/25 03:28:49;;;;;;;6.40;2.08;;;7.80;99.90;;;;;;7411606;19;19933;-86
2023/03/25 03:31:24;;;;;;;12.15;2.13;;;7.90;99.90;;;;;;7413110;19;19926;-87
2023/03/25 03:33:59;;;;;;;9.57;1.70;;;7.90;99.90;;;;;;7413532;19;19922;-86
2023/03/25 03:36:34;;;;;;;12.90;2.10;;;7.90;99.90;;;;;;7413807;19;19911;-86
2023/03/25 03:39:06;;;;;;;11.27;2.38;;;7.90;99.90;;;;;;7410640;19;20654;-87
2023/03/25 03:41:44;;;;;;;8.52;1.90;;;7.20;99.90;;;;;;7409227;19;20355;-86
2023/03/25 03:44:16;;;;;;;8.40;1.70;;;8.50;99.90;;;;;;7408949;19;19923;-86
2023/03/25 03:46:53;;;;;;;8.95;2.25;;;7.80;99.90;;;;;;7410510;19;19927;-86
2023/03/25 03:49:26;;;;;;;19.42;2.03;;;7.90;99.90;;;;;;7413651;19;19922;-87
2023/03/25 03:51:59;;;;;;;9.95;2.08;;;7.70;99.90;;;;;;7415067;19;19986;-87
2023/03/25 03:54:31;;;;;;;9.27;2.38;;;7.80;99.90;;;;;;7408727;19;19955;-87
2023/03/25 03:57:06;;;;;;;;;;;7.70;99.90;;;;;;7412625;19;19918;-87
2023/03/25 03:59:42;;;;;;;7.60;2.08;;;7.70;99.90;;;;;;7408742;19;19961;-87
2023/03/25 04:02:16;;;;;;;7.05;1.60;;;7.90;99.90;;;;;;7409296;19;19914;-86
2023/03/25 04:04:45;;;;;;;9.93;2.95;;;7.60;99.90;;;;;;7408433;19;19923;-86
2023/03/25 04:07:18;;;;;;;12.13;2.05;;;7.70;99.90;;;;;;7409155;19;20276;-86
2023/03/25 04:09:56;;;;;;;7.88;1.27;;;7.60;99.90;;;;;;7410254;19;19937;-86
2023/03/25 04:12:31;;;;;;;9.93;1.40;;;7.50;99.90;;;;;;7412040;19;20292;-86
2023/03/25 04:15:03;;;;;;;7.30;1.88;;;7.70;99.90;;;;;;7412723;19;19911;-86
2023/03/25 04:17:44;;;;;;;8.90;2.10;;;7.50;99.90;;;;;;7408392;19;19919;-84
2023/03/25 04:20:17;;;;;;;11.07;2.85;;;7.50;99.90;;;;;;7406475;19;20386;-86
2023/03/25 04:22:46;;;;;;;6.90;1.88;;;7.80;99.90;;;;;;7414624;19;19926;-86
2023/03/25 04:25:15;;;;;;;12.50;2.05;;;7.70;99.90;;;;;;7405384;19;20317;-86
2023/03/25 04:27:47;;;;;;;8.30;1.60;;;7.60;99.90;;;;;;7407639;19;19922;-86
2023/03/25 04:30:18;;;;;;;8.43;2.53;;;6.60;99.90;;;;;;7407981;19;19922;-86
2023/03/25 04:32:48;;;;;;;9.00;2.13;;;7.70;99.90;;;;;;7411261;19;20000;-86
2023/03/25 04:35:18;;;;;;;7.65;1.70;;;7.70;99.90;;;;;;7408760;19;20411;-87
2023/03/25 04:37:53;;;;;;;7.60;2.17;;;7.70;99.90;;;;;;7409192;19;19919;-86
2023/03/25 04:40:24;;;;;;;9.60;2.53;;;8.50;99.90;;;;;;7410937;19;19926;-86
2023/03/25 04:42:56;;;;;;;9.77;1.83;;;7.70;99.90;;;;;;7411907;19;19947;-87
2023/03/25 04:45:27;;;;;;;11.75;1.85;;;7.60;99.90;;;;;;7406383;19;19914;-86
2023/03/25 04:47:56;;;;;;;10.30;2.20;;;7.60;99.90;;;;;;7406930;19;19918;-86
2023/03/25 04:50:30;;;;;;;9.20;2.20;;;7.60;99.90;;;;;;7407509;19;19918;-87
2023/03/25 04:53:00;;;;;;;9.05;2.20;;;7.60;99.90;;;;;;7406394;19;19934;-86
2023/03/25 04:55:30;;;;;;;8.40;1.98;;;8.00;99.90;;;;;;7407708;19;19911;-86
2023/03/25 04:58:02;;;;;;;9.18;2.00;;;7.70;99.90;;;;;;7406980;19;19914;-86
2023/03/25 05:00:31;;;;;;;11.18;2.65;;;6.70;99.90;;;;;;7408000;19;20018;-87
2023/03/25 05:03:00;;;;;;;9.73;1.60;;;7.60;99.90;;;;;;7410528;19;19918;-86
2023/03/25 05:05:29;;;;;;;8.48;3.05;;;7.60;99.90;;;;;;7410555;19;19963;-87
2023/03/25 05:08:00;;;;;;;7.95;1.80;;;7.70;99.90;;;;;;7407125;19;19934;-86
2023/03/25 05:10:31;;;;;;;9.65;2.40;;;7.60;99.90;;;;;;7411413;19;19918;-87
2023/03/25 05:13:04;;;;;;;10.88;2.10;;;7.60;99.90;;;;;;7408145;19;19911;-87
2023/03/25 05:15:38;;;;;;;10.48;1.92;;;7.60;99.90;;;;;;7406090;19;19943;-86
2023/03/25 05:18:11;;;;;;;11.20;2.05;;;7.50;99.90;;;;;;7406003;19;19938;-86
2023/03/25 05:20:41;;;;;;;12.65;2.20;;;7.70;99.90;;;;;;7407503;19;19919;-86
2023/03/25 05:23:16;;;;;;;12.98;2.22;;;7.20;99.90;;;;;;7408378;19;19918;-86
2023/03/25 05:25:46;;;;;;;6.93;1.98;;;7.60;99.90;;;;;;7407497;19;19974;-85
2023/03/25 05:28:18;;;;;;;8.27;1.83;;;8.00;99.90;;;;;;7404684;19;19918;-86
2023/03/25 05:30:48;;;;;;;8.57;1.70;;;7.40;99.90;;;;;;7406898;19;19945;-85
2023/03/25 05:33:18;;;;;;;8.80;1.35;;;7.20;99.90;;;;;;7406321;19;19942;-86
2023/03/25 05:35:48;;;;;;;4.78;1.63;;;7.50;99.90;;;;;;7410494;19;19915;-86
2023/03/25 05:38:19;;;;;;;11.23;1.98;;;8.40;99.90;;;;;;7406673;19;20363;-85
2023/03/25 05:40:48;;;;;;;8.05;1.83;;;7.50;99.90;;;;;;7406259;19;19918;-85
2023/03/25 05:43:21;;;;;;;7.75;1.38;;;7.30;99.90;;;;;;7404647;19;20241;-85
2023/03/25 05:45:52;;;;;;;3.25;1.50;;;7.40;99.90;;;;;;7406038;19;19919;-86
2023/03/25 05:48:21;;;;;;;5.65;1.63;;;7.40;99.90;;;;;;7405422;19;19974;-86
2023/03/25 05:50:50;;;;;;;8.38;2.28;;;7.40;99.90;;;;;;7404758;19;19929;-85
2023/03/25 05:53:20;;;;;;;5.90;1.60;;;7.70;99.90;;;;;;7407577;19;19918;-85
2023/03/25 05:55:50;;;;;;;10.02;1.92;;;7.40;99.90;;;;;;7405867;19;19996;-87
2023/03/25 05:58:23;;;;;;;7.07;1.77;;;7.50;99.90;;;;;;7408190;19;19918;-86
2023/03/25 06:00:55;;;;;;;7.32;1.67;;;7.60;99.90;;;;;;7405011;19;19918;-86
2023/03/25 06:03:26;;;;;;;8.40;2.17;;;7.50;99.90;;;;;;7404807;19;19925;-87
2023/03/25 06:05:55;;;;;;;9.80;1.83;;;7.60;99.90;;;;;;7405768;19;19922;-86
2023/03/25 06:08:25;;;;;;;10.02;2.40;;;7.70;99.90;;;;;;7405162;19;19994;-86
2023/03/25 06:10:57;;;;;;;9.35;1.83;;;7.60;99.90;;;;;;7406312;19;19919;-86
2023/03/25 06:13:51;;;;;;;10.73;2.17;;;7.50;99.90;;;;;;7405101;19;19978;-86
2023/03/25 06:16:40;;;;;;;10.43;1.63;;;7.60;99.90;;;;;;7402752;19;19974;-86
2023/03/25 06:19:29;;;;;;;10.63;1.70;;;7.60;99.90;;;;;;7402780;19;20252;-87
2023/03/25 06:21:58;;;;;;;11.50;2.08;;;7.70;99.90;;;;;;7403505;19;19925;-86
2023/03/25 06:24:27;;;;;;;8.02;1.38;;;7.70;99.90;;;;;;7403810;19;19919;-86
2023/03/25 06:26:55;;;;;;;11.00;1.95;;;8.10;99.90;;;;;;7403932;19;19936;-86
2023/03/25 06:29:27;;;;;;;12.40;2.20;;;7.70;99.90;;;;;;7404975;19;20300;-87
2023/03/25 06:31:56;;;;;;;8.95;1.75;;;8.70;99.90;;;;;;7403917;19;19922;-87
2023/03/25 06:34:25;;;;;;;10.15;2.45;;;7.80;99.90;;;;;;7404704;19;19946;-86
2023/03/25 06:36:54;;;;;;;16.02;2.75;;;7.80;99.90;;;;;;7404514;19;19970;-88
2023/03/25 06:39:23;;;;;;;8.70;1.95;;;7.70;99.90;;;;;;7404090;19;19922;-88
2023/03/25 06:41:52;;;;;;;10.98;2.22;;;7.70;99.90;;;;;;7405180;19;20344;-86
2023/03/25 06:44:21;;;;;;;8.55;1.90;;;7.80;99.90;;;;;;7406907;19;19922;-86
2023/03/25 06:46:52;;;;;;;10.48;2.25;;;7.80;99.90;;;;;;7406238;19;19918;-86
2023/03/25 06:49:21;;;;;;;8.95;1.95;;;7.90;99.90;;;;;;7401687;19;19926;-86
2023/03/25 06:51:50;;;;;;;10.07;2.17;;;7.90;99.90;;;;;;7407347;19;19978;-86
2023/03/25 06:54:20;;;;;;;10.70;2.10;;;7.50;99.90;;;;;;7404857;19;19935;-86
2023/03/25 06:56:48;;;;;;;9.80;1.67;;;7.70;99.90;;;;;;7403503;19;19911;-87
2023/03/25 06:59:17;;;;;;;9.60;1.73;;;8.00;99.90;;;;;;7404104;19;19917;-86
2023/03/25 07:01:46;;;;;;;7.65;1.60;;;7.70;99.90;;;;;;7402967;19;19918;-86
2023/03/25 07:04:18;;;;;;;7.88;1.60;;;7.80;99.90;;;;;;7405319;19;20486;-88
2023/03/25 07:06:47;;;;;;;4.43;1.13;;;8.00;99.90;;;;;;7405319;19;19926;-89
2023/03/25 07:09:15;;;;;;;5.25;1.33;;;7.70;99.90;;;;;;7405845;19;19925;-88
2023/03/25 07:11:45;;;;;;;6.10;1.67;;;7.70;99.90;;;;;;7403955;19;19933;-87
2023/03/25 07:14:14;;;;;;;9.52;1.52;;;7.70;99.90;;;;;;7404621;19;19918;-88
2023/03/25 07:16:43;;;;;;;8.13;1.48;;;7.70;99.90;;;;;;7403202;19;19986;-89
2023/03/25 07:19:12;;;;;;;9.25;2.17;;;9.00;99.90;;;;;;7406785;19;20249;-88
2023/03/25 07:21:43;;;;;;;8.95;1.70;;;7.80;99.90;;;;;;7402960;19;19921;-88
2023/03/25 07:24:12;;;;;;;10.57;2.05;;;7.60;99.90;;;;;;7404410;19;19946;-88
2023/03/25 07:26:41;;;;;;;7.88;2.20;;;7.70;99.90;;;;;;7404097;19;19921;-88
2023/03/25 07:29:10;;;;;;;9.02;2.00;;;7.80;99.90;;;;;;7404696;19;20555;-87
2023/03/25 07:31:40;;;;;;;8.10;2.30;;;7.20;99.90;;;;;;7406459;19;19922;-86
2023/03/25 07:34:09;;;;;;;10.93;2.10;;;7.70;99.90;;;;;;7403802;19;20025;-86
2023/03/25 07:36:38;;;;;;;9.35;1.52;;;7.70;99.90;;;;;;7403789;19;20569;-86
2023/03/25 07:39:09;;;;;;;7.82;2.58;;;7.70;99.90;;;;;;7403962;19;20389;-86
2023/03/25 07:41:38;;;;;;;10.77;1.70;;;7.10;99.90;;;;;;7401314;19;20640;-87
2023/03/25 07:44:07;;;;;;;13.70;2.08;;;7.80;99.90;;;;;;7403220;19;19919;-86
2023/03/25 07:46:36;;;;;;;13.05;1.80;;;7.70;99.90;;;;;;7398635;19;19922;-87
2023/03/25 07:49:05;;;;;;;11.00;1.77;;;7.90;99.90;;;;;;7402153;19;20315;-87
2023/03/25 07:51:34;;;;;;;9.90;1.85;;;8.00;99.90;;;;;;7399043;19;20003;-88
2023/03/25 07:54:03;;;;;;;12.73;2.65;;;8.10;99.90;;;;;;7398972;19;19939;-88
2023/03/25 07:56:35;;;;;;;7.45;1.52;;;8.00;99.90;;;;;;7399697;19;20252;-88
2023/03/25 07:59:04;;;;;;;6.45;1.60;;;8.20;99.90;;;;;;7400506;19;19918;-87
2023/03/25 08:01:33;;;;;;;8.80;1.48;;;8.10;99.90;;;;;;7406087;19;19970;-87
2023/03/25 08:04:02;;;;;;;16.77;2.67;;;8.20;99.90;;;;;;7405023;19;19970;-87
2023/03/25 08:06:31;;;;;;;14.35;1.90;;;8.10;99.90;;;;;;7406183;19;19918;-86
2023/03/25 08:09:00;;;;;;;15.48;1.80;;;8.20;99.90;;;;;;7409548;19;19926;-87
2023/03/25 08:11:29;;;;;;;12.07;1.80;;;9.00;99.90;;;;;;7407242;19;20402;-86
2023/03/25 08:14:01;;;;;;;10.43;1.92;;;8.30;99.90;;;;;;7405486;19;19922;-87
2023/03/25 08:16:30;;;;;;;8.32;1.80;;;8.10;99.90;;;;;;7409929;19;19930;-85
2023/03/25 08:18:59;;;;;;;2.97;0.80;;;8.00;99.90;;;;;;7393662;19;19957;-77
2023/03/25 08:21:28;;;;;;;2.20;0.70;;;7.70;99.90;;;;;;7400607;19;19923;-78
2023/03/25 08:24:01;;;;;;;6.80;1.15;;;7.50;99.90;;;;;;7403398;19;19923;-82
2023/03/25 08:26:30;;;;;;;5.82;1.20;;;7.50;99.90;;;;;;7408008;19;20263;-84
2023/03/25 08:29:02;;;;;;;12.30;2.47;;;7.50;99.90;;;;;;7405860;19;19933;-83
2023/03/25 08:31:34;;;;;;;7.95;1.40;;;6.90;99.90;;;;;;7410914;19;19947;-86
2023/03/25 08:34:04;;;;;;;12.43;1.77;;;8.70;99.90;;;;;;7407787;19;20333;-86
2023/03/25 08:36:38;;;;;;;6.60;1.38;;;7.50;99.90;;;;;;7405454;19;19922;-84
2023/03/25 08:39:10;;;;;;;7.13;1.70;;;8.00;99.90;;;;;;7404995;19;19985;-81
2023/03/25 08:41:39;;;;;;;7.80;1.40;;;7.60;99.90;;;;;;7403917;19;19930;-84
2023/03/25 08:44:11;;;;;;;7.95;1.10;;;7.50;99.90;;;;;;7401103;19;19922;-81
2023/03/25 08:46:40;;;;;;;12.27;1.98;;;8.20;99.90;;;;;;7404022;19;19923;-73
2023/03/25 08:49:09;;;;;;;8.57;1.23;;;7.60;99.90;;;;;;7403902;19;19923;-85
2023/03/25 08:51:38;;;;;;;10.55;1.40;;;7.50;99.90;;;;;;7390044;19;19926;-85
2023/03/25 08:54:07;;;;;;;7.47;1.60;;;8.00;99.90;;;;;;7403415;19;19921;-84
2023/03/25 08:56:36;;;;;;;5.03;0.93;;;7.50;99.90;;;;;;7399388;19;19922;-91
2023/03/25 08:59:05;;;;;;;1.10;0.60;;;7.60;99.90;;;;;;7405817;19;19933;-84
2023/03/25 09:01:37;;;;;;;5.93;1.30;;;7.80;99.90;;;;;;7404951;19;19914;-86
2023/03/25 09:04:06;;;;;;;3.67;0.80;;;8.10;99.90;;;;;;7404320;19;19929;-85
2023/03/25 09:06:35;;;;;;;8.40;0.98;;;7.60;99.90;;;;;;7404184;19;19926;-79
2023/03/25 09:09:04;;;;;;;4.85;0.90;;;7.20;99.90;;;;;;7404222;19;19923;-82
2023/03/25 09:11:33;;;;;;;4.20;1.25;;;6.70;99.90;;;;;;7403282;19;20290;-85
2023/03/25 09:14:04;;;;;;;7.60;1.30;;;7.60;99.90;;;;;;7403053;19;19926;-82
2023/03/25 09:16:33;;;;;;;6.28;1.10;;;7.80;99.90;;;;;;7405234;19;19926;-90
2023/03/25 09:19:04;;;;;;;8.43;1.42;;;7.60;99.90;;;;;;7404645;19;19926;-81
2023/03/25 09:21:33;;;;;;;8.20;1.63;;;8.60;99.90;;;;;;7406424;19;19922;-85
2023/03/25 09:24:02;;;;;;;8.27;1.60;;;7.80;99.90;;;;;;7400343;19;19922;-84
2023/03/25 09:26:31;;;;;;;7.43;1.52;;;7.90;99.90;;;;;;7404301;19;19914;-83
2023/03/25 09:29:00;;;;;;;7.70;1.42;;;7.90;99.90;;;;;;7404011;19;19923;-83
2023/03/25 09:31:29;;;;;;;7.78;1.92;;;8.00;99.90;;;;;;7404509;19;19951;-87
2023/03/25 09:33:58;;;;;;;11.98;1.90;;;8.90;99.90;;;;;;7398092;19;20263;-80
2023/03/25 09:36:30;;;;;;;10.38;2.53;;;8.10;99.90;;;;;;7400242;19;19930;-87
2023/03/25 09:38:59;;;;;;;9.77;1.40;;;8.00;99.90;;;;;;7403849;19;19928;-83
2023/03/25 09:41:42;;;;;;;13.40;2.85;;;8.30;99.90;;;;;;7402678;19;20307;-84
2023/03/25 09:44:20;;;;;;;6.43;1.40;;;8.70;99.90;;;;;;7402372;19;19935;-82
2023/03/25 09:46:50;;;;;;;11.98;1.50;;;8.60;99.90;;;;;;7403402;19;19926;-85
2023/03/25 09:49:22;;;;;;;14.40;1.80;;;8.60;99.90;;;;;;7406546;19;20342;-90
2023/03/25 09:51:55;;;;;;;12.65;1.80;;;9.00;99.90;;;;;;7398602;19;20344;-85
2023/03/25 09:54:28;;;;;;;8.70;1.77;;;8.70;99.90;;;;;;7401928;19;19929;-84
2023/03/25 09:57:00;;;;;;;14.48;1.85;;;8.70;99.90;;;;;;7394874;19;19914;-83
2023/03/25 09:59:42;;;;;;;5.43;1.20;;;8.90;99.90;;;;;;7400269;19;19918;-84
2023/03/25 10:02:23;;;;;;;7.50;1.33;;;9.10;99.90;;;;;;7399342;19;19923;-89
2023/03/25 10:05:05;;;;;;;6.35;1.73;;;9.10;99.90;;;;;;7398609;19;20318;-79
2023/03/25 10:07:49;;;;;;;6.65;1.60;;;10.20;99.90;;;;;;7399918;19;19919;-80
2023/03/25 10:10:29;;;;;;;8.98;1.67;;;9.20;99.90;;;;;;7396162;19;19924;-83
2023/03/25 10:13:08;;;;;;;8.52;1.92;;;9.30;99.90;;;;;;7401113;19;19923;-86
2023/03/25 10:15:44;;;;;;;10.18;1.58;;;9.30;99.90;;;;;;7402078;19;19985;-87
2023/03/25 10:18:37;;;;;;;10.55;1.77;;;9.30;99.90;;;;;;7390452;19;19930;-78
2023/03/25 10:21:12;;;;;;;8.52;1.75;;;9.40;99.90;;;;;;7391437;19;19922;-79
2023/03/25 10:23:52;;;;;;;7.72;1.20;;;9.40;99.90;;;;;;7397141;19;19942;-84
2023/03/25 10:26:28;;;;;;;14.40;2.15;;;9.50;99.90;;;;;;7400386;19;19928;-80
2023/03/25 10:29:02;;;;;;;16.90;1.65;;;9.20;99.90;;;;;;7398071;19;19927;-91
2023/03/25 10:31:36;;;;;;;7.05;1.35;;;9.00;99.90;;;;;;7399822;19;19935;-81
2023/03/25 10:34:08;;;;;;;9.82;1.20;;;8.90;99.90;;;;;;7398760;19;19922;-81
2023/03/25 10:36:43;;;;;;;5.82;1.08;;;8.90;99.90;;;;;;7388157;19;20281;-80
2023/03/25 10:39:20;;;;;;;6.40;0.93;;;8.70;99.90;;;;;;7397403;19;19929;-81
2023/03/25 10:41:54;;;;;;;5.07;1.08;;;8.70;99.90;;;;;;7397071;19;19923;-83
2023/03/25 10:44:26;;;;;;;5.88;1.60;;;8.80;99.90;;;;;;7401324;19;19923;-85
2023/03/25 10:47:00;;;;;;;12.38;1.40;;;8.90;99.90;;;;;;7398548;19;19939;-83
2023/03/25 10:49:31;;;;;;;10.63;2.25;;;9.00;99.90;;;;;;7399129;19;20336;-85
2023/03/25 10:52:01;;;;;;;3.83;1.15;;;9.50;99.90;;;;;;7402260;19;19925;-84
2023/03/25 10:54:36;;;;;;;5.47;1.00;;;9.00;99.90;;;;;;7400447;19;19922;-87
2023/03/25 10:57:08;;;;;;;6.57;1.23;;;9.00;99.90;;;;;;7398497;19;19914;-81
2023/03/25 10:59:44;;;;;;;9.73;1.70;;;9.20;99.90;;;;;;7401013;19;19929;-88
2023/03/25 11:02:19;;;;;;;8.52;1.00;;;9.40;99.90;;;;;;7397075;19;19930;-88
2023/03/25 11:04:51;;;;;;;13.95;2.45;;;9.20;99.90;;;;;;7389713;19;19925;-83
2023/03/25 11:07:25;;;;;;;9.43;1.90;;;9.10;99.90;;;;;;7396255;19;19930;-81
2023/03/25 11:10:09;;;;;;;7.15;1.30;;;8.80;99.90;;;;;;7397958;19;19926;-81
2023/03/25 11:12:38;;;;;;;10.48;1.70;;;8.70;99.90;;;;;;7397502;19;20356;-85
2023/03/25 11:15:09;;;;;;;5.93;1.40;;;8.80;99.90;;;;;;7399843;19;19962;-84
2023/03/25 11:17:39;;;;;;;7.80;1.50;;;8.80;99.90;;;;;;7397931;19;19927;-87
2023/03/25 11:20:18;;;;;;;9.27;1.50;;;8.70;99.90;;;;;;7402406;19;19994;-84
2023/03/25 11:22:50;;;;;;;8.02;1.40;;;8.70;99.90;;;;;;7393105;19;19930;-82
2023/03/25 11:25:26;;;;;;;8.63;1.30;;;8.70;99.90;;;;;;7399706;19;20255;-83
2023/03/25 11:27:58;;;;;;;5.13;1.63;;;8.70;99.90;;;;;;7396187;19;19933;-87
2023/03/25 11:30:28;;;;;;;7.18;1.35;;;8.50;99.90;;;;;;7400984;19;19942;-89
2023/03/25 11:33:04;;;;;;;12.15;1.73;;;8.30;99.90;;;;;;7402388;19;19926;-88
2023/03/25 11:35:38;;;;;;;9.70;1.52;;;8.40;99.90;;;;;;7401955;19;19926;-85
2023/03/25 11:38:16;;;;;;;8.77;1.40;;;8.20;99.90;;;;;;7403443;19;19919;-83
2023/03/25 11:40:56;;;;;;;10.20;2.90;;;8.20;99.90;;;;;;7405584;19;19918;-82
2023/03/25 11:43:27;;;;;;;9.88;2.03;;;8.20;99.90;;;;;;7402204;19;19949;-81
2023/03/25 11:45:56;;;;;;;7.13;1.52;;;8.30;99.90;;;;;;7405774;19;20277;-81
2023/03/25 11:48:31;;;;;;;8.15;1.95;;;8.30;99.90;;;;;;7404872;19;19930;-80
2023/03/25 11:51:04;;;;;;;7.35;1.48;;;8.30;99.90;;;;;;7403117;19;19922;-79
2023/03/25 11:53:34;;;;;;;7.75;2.47;;;8.30;99.90;;;;;;7405063;19;20608;-87
2023/03/25 11:56:09;;;;;;;7.65;2.15;;;8.50;99.90;;;;;;7404924;19;19965;-83
2023/03/25 11:58:40;;;;;;;12.15;2.30;;;8.40;99.90;;;;;;7402653;19;19926;-77
2023/03/25 12:01:23;;;;;;;6.32;1.50;;;8.60;99.90;;;;;;7403503;19;19922;-77
2023/03/25 12:03:53;;;;;;;9.90;1.50;;;8.80;99.90;;;;;;7399487;19;19922;-80
2023/03/25 12:06:23;;;;;;;8.48;2.17;;;8.90;99.90;;;;;;7403260;19;19923;-75
2023/03/25 12:08:54;;;;;;;13.55;2.25;;;9.00;99.90;;;;;;7402996;19;20274;-79
2023/03/25 12:11:29;;;;;;;13.85;1.50;;;9.10;99.90;;;;;;7402900;19;19946;-81
2023/03/25 12:14:16;;;;;;;10.30;2.80;;;9.20;99.90;;;;;;7401098;19;19922;-82
2023/03/25 12:16:53;;;;;;;6.88;1.33;;;9.30;99.90;;;;;;7404079;19;19927;-85
2023/03/25 12:19:33;;;;;;;9.00;1.50;;;9.30;99.90;;;;;;7403281;19;19914;-84
2023/03/25 12:22:16;;;;;;;10.18;1.63;;;9.30;99.90;;;;;;7404283;19;19930;-83
2023/03/25 12:24:58;;;;;;;12.40;1.35;;;9.50;99.90;;;;;;7400137;19;20166;-81
2023/03/25 12:27:39;;;;;;;6.82;1.70;;;9.60;99.90;;;;;;7403640;19;19931;-78
2023/03/25 12:30:21;;;;;;;5.22;1.15;;;9.60;99.90;;;;;;7404058;19;19929;-76
2023/03/25 12:32:57;;;;;;;6.10;0.88;;;9.60;99.90;;;;;;7397863;19;20612;-82
2023/03/25 12:35:36;;;;;;;4.97;1.00;;;9.50;99.90;;;;;;7401987;19;19922;-84
2023/03/25 12:38:27;;;;;;;8.63;1.08;;;9.40;99.90;;;;;;7403473;19;19938;-81
2023/03/25 12:41:13;;;;;;;8.35;1.73;;;9.20;99.90;;;;;;7403507;19;19925;-80
2023/03/25 12:44:01;;;;;;;6.45;1.05;;;9.30;99.90;;;;;;7398010;19;19934;-79
2023/03/25 12:46:52;;;;;;;4.22;1.13;;;9.20;99.90;;;;;;7401721;19;19926;-85
2023/03/25 12:49:37;;;;;;;8.35;0.80;;;9.20;99.90;;;;;;7402512;19;20297;-81
2023/03/25 12:52:11;;;;;;;11.18;1.42;;;9.50;99.90;;;;;;7401344;19;19915;-78
2023/03/25 12:54:54;;;;;;;9.63;1.13;;;9.40;99.90;;;;;;7397903;19;19933;-82
2023/03/25 12:57:39;;;;;;;5.25;1.45;;;9.50;99.90;;;;;;7400196;19;19919;-84
2023/03/25 13:00:27;;;;;;;6.93;1.17;;;9.60;99.90;;;;;;7403727;19;19922;-77
2023/03/25 13:03:23;;;;;;;9.80;1.65;;;9.70;99.90;;;;;;7399610;19;19918;-79
2023/03/25 13:05:56;;;;;;;7.45;1.20;;;9.80;99.90;;;;;;7396989;19;20361;-83
2023/03/25 13:08:30;;;;;;;10.38;1.50;;;9.90;99.90;;;;;;7400662;19;19939;-84
2023/03/25 13:11:05;;;;;;;9.00;1.60;;;10.00;99.90;;;;;;7402848;19;19931;-86
2023/03/25 13:13:36;;;;;;;5.00;1.17;;;9.90;99.90;;;;;;7401562;19;19939;-80
2023/03/25 13:16:13;;;;;;;8.70;1.20;;;9.90;99.90;;;;;;7402035;19;20372;-78
2023/03/25 13:18:46;;;;;;;6.20;1.52;;;9.90;99.90;;;;;;7403436;19;19926;-81
2023/03/25 13:21:20;;;;;;;7.70;1.42;;;10.00;99.90;;;;;;7398225;19;19989;-75
2023/03/25 13:23:55;;;;;;;6.20;1.10;;;9.90;99.90;;;;;;7400891;19;20359;-79
2023/03/25 13:26:28;;;;;;;4.45;0.98;;;10.10;99.90;;;;;;7402197;19;19922;-82